Time;durP1;ratioP1;P1;durP2;ratioP2;P2;SDS_P1;SDS_P2;PMS_P1;PMS_P2;Temp;Humidity;BMP_temperature;BMP_pressure;BME280_temperature;BME280_humidity;BME280_pressure;Samples;Min_cycle;Max_cycle;Signal;HPM_P1;HPM_P2
2022/06/23 00:01:19;;;;;;;13.18;7.53;;;;;;;22.47;67.74;94461.81;4965795;28;20229;-84
2022/06/23 00:04:00;;;;;;;14.25;7.63;;;;;;;22.21;69.06;94455.44;4966269;28;20221;-82
2022/06/23 00:06:47;;;;;;;14.05;6.90;;;;;;;22.08;69.92;94451.72;4965699;28;20276;-84
2022/06/23 00:09:50;;;;;;;11.68;7.30;;;;;;;22.20;69.61;94453.88;4963177;28;20235;-82
2022/06/23 00:12:32;;;;;;;14.55;7.10;;;;;;;22.17;69.62;94446.53;4966518;28;20236;-83
2022/06/23 00:15:28;;;;;;;17.38;7.55;;;;;;;22.15;70.21;94451.34;4968328;28;20205;-82
2022/06/23 00:18:23;;;;;;;15.02;7.60;;;;;;;22.10;70.51;94462.81;4962631;28;20208;-81
2022/06/23 00:21:04;;;;;;;13.20;7.18;;;;;;;22.30;70.36;94458.97;4961860;28;20244;-82
2022/06/23 00:23:45;;;;;;;14.98;7.43;;;;;;;22.43;69.71;94451.00;4960599;28;20224;-82
2022/06/23 00:26:26;;;;;;;11.77;7.30;;;;;;;22.43;68.94;94458.97;4967582;28;20208;-82
2022/06/23 00:29:05;;;;;;;14.38;7.70;;;;;;;22.28;69.93;94440.72;4968804;28;20331;-82
2022/06/23 00:31:43;;;;;;;11.82;7.57;;;;;;;22.27;69.92;94435.75;4964315;28;20303;-80
2022/06/23 00:34:27;;;;;;;16.02;7.55;;;;;;;22.34;70.07;94433.47;4969156;28;20205;-80
2022/06/23 00:37:11;;;;;;;11.15;7.20;;;;;;;22.31;70.07;94421.59;4956573;28;20210;-81
2022/06/23 00:39:50;;;;;;;17.85;7.70;;;;;;;22.30;70.43;94408.66;4961818;28;20259;-81
2022/06/23 00:42:35;;;;;;;14.07;7.57;;;;;;;22.29;70.75;94396.50;4960815;28;20217;-79
2022/06/23 00:45:26;;;;;;;14.85;7.82;;;;;;;22.16;71.48;94392.81;4957479;28;20224;-79
2022/06/23 00:48:11;;;;;;;12.18;6.93;;;;;;;22.01;71.83;94406.34;4961630;28;20208;-79
2022/06/23 00:51:09;;;;;;;16.52;8.15;;;;;;;21.99;72.66;94427.03;4967348;28;20208;-81
2022/06/23 00:53:55;;;;;;;16.45;8.30;;;;;;;21.67;73.96;94414.63;4963971;28;20288;-83
2022/06/23 00:56:52;;;;;;;14.60;7.28;;;;;;;21.61;74.35;94430.88;4966859;28;20232;-86
2022/06/23 00:59:32;;;;;;;11.55;7.40;;;;;;;21.61;74.04;94422.94;4965609;28;20217;-84
2022/06/23 01:02:14;;;;;;;15.30;7.65;;;;;;;21.57;73.63;94416.66;4961760;28;20239;-85
2022/06/23 01:04:58;;;;;;;12.85;7.38;;;;;;;21.66;73.83;94420.19;4957295;28;20228;-86
2022/06/23 01:07:50;;;;;;;13.43;7.72;;;;;;;21.69;74.51;94407.19;4968714;28;20209;-86
2022/06/23 01:10:29;;;;;;;13.95;7.75;;;;;;;21.75;74.01;94419.25;4971739;28;20224;-85
2022/06/23 01:13:20;;;;;;;15.52;8.18;;;;;;;21.80;73.72;94415.72;4963363;28;20575;-86
2022/06/23 01:15:55;;;;;;;15.27;8.02;;;;;;;21.77;73.88;94409.13;4962914;28;20208;-87
2022/06/23 01:18:38;;;;;;;13.50;7.93;;;;;;;21.79;73.96;94408.88;4972429;28;20296;-87
2022/06/23 01:21:20;;;;;;;11.30;7.63;;;;;;;21.78;74.16;94404.63;4970811;28;20213;-85
2022/06/23 01:24:25;;;;;;;16.00;7.93;;;;;;;21.71;74.59;94389.16;4966108;28;20275;-85
2022/06/23 01:27:33;;;;;;;12.63;7.43;;;;;;;21.69;75.31;94401.09;4959647;28;20873;-87
2022/06/23 01:30:17;;;;;;;13.35;7.95;;;;;;;21.63;75.30;94411.00;4966962;28;20220;-87
2022/06/23 01:33:08;;;;;;;15.70;7.97;;;;;;;21.63;75.92;94410.19;4960013;28;20200;-87
2022/06/23 01:35:49;;;;;;;15.10;8.00;;;;;;;21.56;76.33;94401.88;4965708;28;20232;-87
2022/06/23 01:38:33;;;;;;;13.10;8.30;;;;;;;21.55;76.46;94392.38;4958162;28;20213;-86
2022/06/23 01:41:22;;;;;;;14.27;8.15;;;;;;;21.57;76.36;94395.50;4966511;28;20202;-85
2022/06/23 01:44:05;;;;;;;14.48;7.95;;;;;;;21.58;76.47;94386.50;4963460;28;20232;-88
2022/06/23 01:46:52;;;;;;;12.38;8.52;;;;;;;21.57;76.42;94385.72;4958604;28;20193;-88
2022/06/23 01:49:34;;;;;;;15.70;8.00;;;;;;;21.45;77.18;94382.75;4964042;28;20213;-88
2022/06/23 01:52:16;;;;;;;13.93;8.15;;;;;;;21.52;77.44;94375.22;4965454;28;20205;-88
2022/06/23 01:54:55;;;;;;;16.67;8.65;;;;;;;21.47;78.16;94370.03;4964595;28;20725;-89
2022/06/23 01:57:38;;;;;;;12.40;8.57;;;;;;;21.40;78.69;94365.13;4963976;28;20236;-89
2022/06/23 02:00:24;;;;;;;16.48;8.55;;;;;;;21.39;78.60;94363.53;4964114;28;20596;-89
2022/06/23 02:03:16;;;;;;;17.70;9.65;;;;;;;21.30;79.22;94367.94;4960683;28;20702;-88
2022/06/23 02:05:59;;;;;;;21.17;9.38;;;;;;;21.15;79.76;94341.00;4964536;28;20714;-88
2022/06/23 02:08:40;;;;;;;17.42;10.63;;;;;;;21.20;80.24;94348.84;4965191;28;20686;-87
2022/06/23 02:11:24;;;;;;;18.90;10.52;;;;;;;21.14;80.75;94352.63;4963753;28;20209;-86
2022/06/23 02:14:08;;;;;;;18.10;11.18;;;;;;;21.07;81.26;94357.50;4959478;28;20211;-88
2022/06/23 02:16:55;;;;;;;20.73;11.65;;;;;;;21.06;81.74;94364.63;4956879;28;20332;-86
2022/06/23 02:19:41;;;;;;;24.98;10.95;;;;;;;21.05;82.75;94362.28;4959600;28;20211;-83
2022/06/23 02:22:19;;;;;;;19.23;11.52;;;;;;;20.98;83.32;94361.88;4957908;28;20254;-83
2022/06/23 02:25:07;;;;;;;21.38;11.50;;;;;;;20.87;83.84;94351.47;4954845;28;20269;-83
2022/06/23 02:27:51;;;;;;;19.48;10.95;;;;;;;20.85;84.66;94356.25;4955904;28;20240;-83
2022/06/23 02:30:46;;;;;;;24.58;11.85;;;;;;;20.81;84.84;94362.38;4960884;28;20237;-84
2022/06/23 02:33:32;;;;;;;22.88;11.88;;;;;;;20.75;85.37;94345.84;4954263;28;20209;-84
2022/06/23 02:36:29;;;;;;;23.35;12.07;;;;;;;20.69;85.69;94357.53;4958036;28;20207;-84
2022/06/23 02:39:14;;;;;;;19.58;12.82;;;;;;;20.61;85.72;94365.34;4953889;28;20285;-84
2022/06/23 02:41:56;;;;;;;23.23;12.13;;;;;;;20.68;85.41;94371.06;4958690;28;20240;-84
2022/06/23 02:45:11;;;;;;;19.85;12.15;;;;;;;20.60;86.22;94364.56;4959627;28;20253;-86
2022/06/23 02:48:06;;;;;;;25.85;12.38;;;;;;;20.56;86.65;94373.34;4957871;28;20209;-86
2022/06/23 02:51:17;;;;;;;20.20;11.82;;;;;;;20.57;86.79;94377.56;4965053;28;20229;-85
2022/06/23 02:54:26;;;;;;;25.20;11.43;;;;;;;20.52;87.74;94375.00;4966498;28;20200;-85
2022/06/23 02:57:30;;;;;;;27.60;12.18;;;;;;;20.53;87.23;94381.84;4960018;28;20213;-86
2022/06/23 03:00:11;;;;;;;25.65;12.77;;;;;;;20.49;87.90;94386.91;4967712;28;20201;-89
2022/06/23 03:02:58;;;;;;;27.58;12.93;;;;;;;20.49;88.24;94381.63;4959608;28;20276;-88
2022/06/23 03:05:41;;;;;;;24.73;12.52;;;;;;;20.45;88.15;94382.50;4966260;28;20217;-88
2022/06/23 03:08:27;;;;;;;22.52;12.13;;;;;;;20.38;88.01;94382.84;4962774;28;20237;-87
2022/06/23 03:11:09;;;;;;;20.63;11.65;;;;;;;20.42;88.24;94398.91;4967155;28;20613;-88
2022/06/23 03:13:58;;;;;;;23.15;12.82;;;;;;;20.33;88.55;94388.19;4959267;28;20209;-86
2022/06/23 03:16:37;;;;;;;20.05;12.27;;;;;;;20.33;88.69;94398.75;4959118;28;20217;-87
2022/06/23 03:19:19;;;;;;;24.30;12.25;;;;;;;20.34;88.87;94392.41;4966079;28;20228;-87
2022/06/23 03:22:07;;;;;;;29.48;12.23;;;;;;;20.32;89.16;94390.03;4963312;28;20205;-87
2022/06/23 03:24:50;;;;;;;25.55;11.85;;;;;;;20.33;89.15;94381.06;4958758;28;20275;-87
2022/06/23 03:27:35;;;;;;;23.08;11.75;;;;;;;20.42;89.06;94372.50;4957733;28;20751;-86
2022/06/23 03:30:23;;;;;;;21.95;11.77;;;;;;;20.44;88.87;94375.63;4961565;28;20213;-86
2022/06/23 03:33:12;;;;;;;23.70;11.18;;;;;;;20.41;89.17;94363.00;4956063;28;20308;-86
2022/06/23 03:36:00;;;;;;;26.13;12.15;;;;;;;20.41;88.09;94369.06;4962326;28;20209;-86
2022/06/23 03:41:41;;;;;;;21.38;12.00;;;;;;;20.37;87.62;94355.66;4962962;28;20201;-87
2022/06/23 03:44:27;;;;;;;22.83;11.40;;;;;;;20.36;87.86;94369.13;4960582;28;20666;-86
2022/06/23 03:47:07;;;;;;;17.98;11.57;;;;;;;20.30;88.45;94352.59;4966276;28;20207;-87
2022/06/23 03:49:48;;;;;;;22.25;11.65;;;;;;;20.30;88.58;94362.34;4961428;28;20301;-86
2022/06/23 03:52:41;;;;;;;25.67;11.82;;;;;;;20.20;89.42;94354.56;4965531;28;20204;-86
2022/06/23 03:55:31;;;;;;;19.23;11.98;;;;;;;20.25;90.49;94380.91;4959163;28;20312;-86
2022/06/23 03:58:16;;;;;;;20.45;11.60;;;;;;;20.19;90.03;94382.00;4961333;28;20219;-87
2022/06/23 04:01:08;;;;;;;26.35;12.32;;;;;;;20.16;89.95;94362.25;4966215;28;20239;-85
2022/06/23 04:03:51;;;;;;;26.10;11.80;;;;;;;20.16;91.41;94375.47;4960889;28;20198;-84
2022/06/23 04:06:46;;;;;;;24.90;12.30;;;;;;;20.20;91.53;94379.09;4961299;28;20244;-85
2022/06/23 04:09:30;;;;;;;23.60;12.10;;;;;;;20.27;91.43;94384.84;4964868;28;20208;-84
2022/06/23 04:12:21;;;;;;;22.35;10.90;;;;;;;20.34;90.38;94382.66;4968877;28;20204;-85
2022/06/23 04:15:08;;;;;;;29.45;11.88;;;;;;;20.25;90.51;94379.06;4961544;28;20686;-85
2022/06/23 04:17:53;;;;;;;19.58;12.02;;;;;;;20.25;90.72;94386.19;4955489;28;20201;-80
2022/06/23 04:20:35;;;;;;;25.58;10.95;;;;;;;20.31;90.78;94383.22;4961454;28;20221;-79
2022/06/23 04:23:18;;;;;;;18.60;10.95;;;;;;;20.28;90.85;94383.00;4936820;28;20587;-79
2022/06/23 04:25:54;;;;;;;18.83;11.18;;;;;;;20.34;90.83;94392.41;4955754;28;20623;-80
2022/06/23 04:28:32;;;;;;;21.52;11.05;;;;;;;20.36;90.84;94390.25;4956542;28;20204;-80
2022/06/23 04:31:10;;;;;;;17.38;10.40;;;;;;;20.43;90.56;94392.56;4957454;28;20197;-80
2022/06/23 04:33:45;;;;;;;22.38;11.15;;;;;;;20.43;90.44;94369.59;4954123;28;20953;-81
2022/06/23 04:36:24;;;;;;;18.73;10.27;;;;;;;20.41;90.09;94358.50;4954345;28;20227;-85
2022/06/23 04:39:01;;;;;;;18.02;9.65;;;;;;;20.54;90.23;94372.84;4958366;28;21138;-84
2022/06/23 04:41:38;;;;;;;18.15;10.25;;;;;;;20.51;89.19;94378.72;4966823;28;20216;-84
2022/06/23 04:44:18;;;;;;;14.40;9.77;;;;;;;20.61;89.08;94374.06;4956295;28;20197;-83
2022/06/23 04:46:55;;;;;;;20.08;10.43;;;;;;;20.66;88.98;94365.28;4965133;28;20234;-83
2022/06/23 04:49:36;;;;;;;17.25;10.38;;;;;;;20.68;89.03;94366.56;4961643;28;20629;-82
2022/06/23 04:52:20;;;;;;;23.65;10.23;;;;;;;20.73;89.76;94373.63;4960433;28;20204;-81
2022/06/23 04:54:56;;;;;;;21.73;11.60;;;;;;;20.74;89.23;94381.25;4960333;28;20263;-81
2022/06/23 04:57:30;;;;;;;17.85;10.60;;;;;;;20.77;89.05;94377.25;4955691;28;20656;-81
2022/06/23 05:00:04;;;;;;;19.70;10.68;;;;;;;20.77;89.95;94371.97;4961943;28;20287;-81
2022/06/23 05:02:38;;;;;;;18.85;10.68;;;;;;;20.77;89.70;94375.41;4957489;28;20197;-83
2022/06/23 05:05:19;;;;;;;20.90;11.57;;;;;;;20.85;88.62;94363.38;4959090;28;20226;-82
2022/06/23 05:07:55;;;;;;;22.05;11.40;;;;;;;20.88;88.45;94360.16;4963422;28;20232;-82
2022/06/23 05:10:27;;;;;;;21.15;11.23;;;;;;;20.95;88.63;94358.72;4960967;28;20208;-83
2022/06/23 05:13:02;;;;;;;16.75;11.00;;;;;;;21.03;87.73;94370.50;4966512;28;20201;-82
2022/06/23 05:15:38;;;;;;;20.08;9.80;;;;;;;21.02;84.16;94355.72;4958886;28;20215;-82
2022/06/23 05:18:15;;;;;;;20.75;10.45;;;;;;;21.05;84.34;94371.00;4964229;28;20203;-84
2022/06/23 05:20:54;;;;;;;20.42;10.52;;;;;;;21.09;83.54;94387.88;4956958;28;20205;-83
2022/06/23 05:23:30;;;;;;;23.10;10.27;;;;;;;21.16;83.60;94380.34;4957017;28;20232;-81
2022/06/23 05:26:08;;;;;;;17.90;10.63;;;;;;;21.21;84.72;94372.31;4964262;28;20228;-84
2022/06/23 05:28:41;;;;;;;23.50;11.73;;;;;;;21.27;85.79;94350.00;4964185;28;20584;-84
2022/06/23 05:31:21;;;;;;;18.45;11.27;;;;;;;21.34;85.64;94339.06;4957587;28;20288;-82
2022/06/23 05:33:56;;;;;;;21.50;10.15;;;;;;;21.42;85.90;94368.25;4958249;28;21319;-79
2022/06/23 05:36:33;;;;;;;20.73;11.00;;;;;;;21.48;86.35;94395.38;4960105;28;20717;-77
2022/06/23 05:39:18;;;;;;;18.33;11.48;;;;;;;21.44;86.83;94394.44;4962871;28;20311;-81
2022/06/23 05:41:51;;;;;;;23.38;11.55;;;;;;;21.50;85.74;94357.00;4960255;28;20211;-82
2022/06/23 05:44:30;;;;;;;16.80;10.98;;;;;;;21.51;86.03;94363.06;4959734;28;20201;-79
2022/06/23 05:47:07;;;;;;;20.33;12.38;;;;;;;21.48;86.72;94406.75;4962030;28;20312;-81
2022/06/23 05:49:43;;;;;;;21.35;12.85;;;;;;;21.40;86.94;94460.31;4959871;28;20209;-79
2022/06/23 05:52:22;;;;;;;30.67;13.45;;;;;;;21.10;89.52;94648.47;4955450;28;20212;-81
2022/06/23 05:55:07;;;;;;;39.33;13.82;;;;;;;20.95;91.87;94770.22;4960089;28;20273;-81
2022/06/23 05:57:43;;;;;;;37.85;13.02;;;;;;;20.07;100.00;94761.63;4960938;28;20201;-78
2022/06/23 06:00:25;;;;;;;26.88;12.65;;;;;;;19.63;100.00;94590.22;4965569;28;20219;-79
2022/06/23 06:03:11;;;;;;;29.25;11.23;;;;;;;19.12;100.00;94514.13;4956249;28;20211;-79
2022/06/23 06:05:51;;;;;;;22.90;8.93;;;;;;;18.87;100.00;94560.91;4958733;28;20240;-83
2022/06/23 06:08:30;;;;;;;22.17;8.75;;;;;;;18.94;100.00;94585.88;4956056;28;20215;-88
2022/06/23 06:11:06;;;;;;;14.55;8.55;;;;;;;18.71;100.00;94599.66;4963410;28;21507;-91
2022/06/23 06:13:40;;;;;;;17.25;8.40;;;;;;;18.48;100.00;94584.44;4960331;28;20236;-91
2022/06/23 06:16:12;;;;;;;19.65;9.35;;;;;;;18.14;100.00;94579.81;4963712;28;20295;-90
2022/06/23 06:18:46;;;;;;;17.50;8.80;;;;;;;18.13;100.00;94598.47;4955604;28;20275;-91
2022/06/23 06:21:20;;;;;;;19.55;8.70;;;;;;;18.12;100.00;94591.66;4960479;28;20204;-90
2022/06/23 06:23:56;;;;;;;14.63;8.57;;;;;;;18.01;100.00;94553.25;4960854;28;20243;-90
2022/06/23 06:26:34;;;;;;;21.97;9.37;;;;;;;17.91;100.00;94517.25;4970507;28;20237;-89
2022/06/23 06:29:20;;;;;;;16.63;9.73;;;;;;;17.99;100.00;94514.06;4967924;28;20313;-90
2022/06/23 06:31:59;;;;;;;20.02;9.18;;;;;;;17.99;100.00;94492.25;4962468;28;20268;-90
2022/06/23 06:34:38;;;;;;;19.55;9.38;;;;;;;18.09;100.00;94511.41;4964665;28;20222;-75
2022/06/23 06:37:12;;;;;;;21.48;10.27;;;;;;;18.17;100.00;94504.03;4960823;28;20204;-81
2022/06/23 06:39:53;;;;;;;20.15;9.38;;;;;;;18.43;100.00;94514.19;4960441;28;20252;-83
2022/06/23 06:42:30;;;;;;;19.13;8.82;;;;;;;18.61;100.00;94512.84;4960475;28;20847;-85
2022/06/23 06:45:08;;;;;;;17.25;9.73;;;;;;;18.78;100.00;94513.28;4959933;28;20208;-83
2022/06/23 06:47:44;;;;;;;13.10;8.30;;;;;;;18.88;100.00;94499.25;4964885;28;20295;-81
2022/06/23 06:50:28;;;;;;;14.60;9.38;;;;;;;19.02;100.00;94493.09;4963527;28;20687;-85
2022/06/23 06:53:04;;;;;;;14.32;8.32;;;;;;;19.16;100.00;94488.00;4959241;28;20240;-82
2022/06/23 06:55:45;;;;;;;11.32;7.43;;;;;;;19.20;100.00;94489.00;4959279;28;20260;-83
2022/06/23 06:58:23;;;;;;;11.90;7.40;;;;;;;19.26;100.00;94501.88;4971177;28;20232;-82
2022/06/23 07:00:58;;;;;;;20.38;7.43;;;;;;;19.33;100.00;94488.41;4970191;28;20208;-84
2022/06/23 07:03:31;;;;;;;14.23;7.65;;;;;;;19.40;100.00;94498.63;4968352;28;20651;-84
2022/06/23 07:06:08;;;;;;;13.98;7.80;;;;;;;19.44;100.00;94494.41;4971807;28;20236;-74
2022/06/23 07:08:44;;;;;;;12.48;9.07;;;;;;;19.51;100.00;94498.28;4967606;28;20212;-82
2022/06/23 07:11:27;;;;;;;17.15;9.65;;;;;;;19.60;100.00;94501.88;4962356;28;20301;-84
2022/06/23 07:14:01;;;;;;;18.33;9.15;;;;;;;19.65;100.00;94501.06;4960877;28;20213;-86
2022/06/23 07:16:39;;;;;;;12.82;7.35;;;;;;;19.70;100.00;94506.31;4969087;28;20284;-83
2022/06/23 07:19:26;;;;;;;17.10;7.97;;;;;;;19.83;100.00;94504.88;4967223;28;20542;-82
2022/06/23 07:22:06;;;;;;;12.65;7.90;;;;;;;19.97;100.00;94509.19;4969424;28;20679;-82
2022/06/23 07:24:46;;;;;;;9.70;6.13;;;;;;;19.95;100.00;94526.34;4976761;28;20201;-79
2022/06/23 07:27:31;;;;;;;10.85;6.63;;;;;;;20.05;100.00;94532.34;4978299;28;20264;-83
2022/06/23 07:30:09;;;;;;;15.32;8.80;;;;;;;20.07;100.00;94522.28;4971254;28;20295;-84
2022/06/23 07:32:51;;;;;;;15.27;8.25;;;;;;;20.26;100.00;94525.00;4976449;28;20205;-83
2022/06/23 07:35:36;;;;;;;19.52;9.27;;;;;;;20.37;100.00;94539.69;4973011;28;20241;-83
2022/06/23 07:38:19;;;;;;;17.50;10.48;;;;;;;20.56;100.00;94542.38;4966983;28;20200;-82
2022/06/23 07:40:58;;;;;;;15.25;9.52;;;;;;;20.52;100.00;94544.78;4960833;28;20293;-84
2022/06/23 07:43:45;;;;;;;15.55;9.10;;;;;;;20.48;100.00;94549.06;4953864;28;20220;-83
2022/06/23 07:46:25;;;;;;;19.33;7.72;;;;;;;20.66;100.00;94550.97;4972671;28;20255;-84
2022/06/23 07:48:56;;;;;;;13.88;7.03;;;;;;;20.49;100.00;94550.63;4972253;28;20306;-83
2022/06/23 07:51:32;;;;;;;17.08;7.50;;;;;;;20.61;100.00;94561.56;4971420;28;20204;-84
2022/06/23 07:54:06;;;;;;;13.43;7.18;;;;;;;20.68;100.00;94574.44;4969496;28;20211;-83
2022/06/23 07:56:42;;;;;;;10.77;6.25;;;;;;;20.83;100.00;94579.56;4950621;28;20229;-85
2022/06/23 07:59:23;;;;;;;11.00;6.25;;;;;;;20.88;100.00;94563.63;4952321;29;20216;-84
2022/06/23 08:01:59;;;;;;;10.00;5.78;;;;;;;20.99;100.00;94559.78;4946310;29;20252;-83
2022/06/23 08:04:37;;;;;;;11.07;6.18;;;;;;;21.08;100.00;94552.03;4952957;29;20201;-83
2022/06/23 08:07:11;;;;;;;7.60;5.60;;;;;;;21.04;100.00;94578.19;4952537;29;20229;-84
2022/06/23 08:09:48;;;;;;;8.45;5.30;;;;;;;20.85;100.00;94585.34;4952561;29;20205;-83
2022/06/23 08:18:14;;;;;;;12.95;5.75;;;;;;;21.02;100.00;94546.00;4951497;29;20204;-82
2022/06/23 08:20:52;;;;;;;11.15;5.90;;;;;;;21.14;100.00;94562.25;4949361;29;20201;-83
2022/06/23 08:23:29;;;;;;;11.38;5.70;;;;;;;21.19;100.00;94556.88;4952575;29;20354;-84
2022/06/23 08:26:05;;;;;;;10.32;5.18;;;;;;;21.16;100.00;94543.44;4952678;29;20220;-82
2022/06/23 08:28:42;;;;;;;13.52;6.00;;;;;;;21.25;100.00;94531.16;4952766;29;20752;-83
2022/06/23 08:31:15;;;;;;;8.23;5.78;;;;;;;21.39;100.00;94532.00;4952619;29;20229;-82
2022/06/23 08:33:46;;;;;;;9.82;6.05;;;;;;;21.44;100.00;94550.47;4951931;29;20587;-83
2022/06/23 08:36:26;;;;;;;6.55;5.68;;;;;;;21.44;100.00;94545.94;4949242;29;20201;-84
2022/06/23 08:39:08;;;;;;;8.98;5.07;;;;;;;21.42;100.00;94528.78;4952594;29;20224;-86
2022/06/23 08:41:48;;;;;;;9.77;5.80;;;;;;;21.60;100.00;94527.19;4950299;29;20320;-86
2022/06/23 08:44:32;;;;;;;12.05;6.13;;;;;;;21.74;100.00;94526.16;4951508;29;20224;-82
2022/06/23 08:47:17;;;;;;;11.75;5.63;;;;;;;21.86;100.00;94534.41;4944605;28;20229;-83
2022/06/23 08:49:55;;;;;;;8.38;5.57;;;;;;;21.89;97.80;94530.44;4946729;29;20217;-83
2022/06/23 08:52:40;;;;;;;10.93;5.95;;;;;;;21.83;98.43;94531.56;4951198;29;20215;-83
2022/06/23 08:55:22;;;;;;;11.32;6.15;;;;;;;21.81;100.00;94517.84;4957580;28;20240;-84
2022/06/23 08:58:01;;;;;;;11.63;6.50;;;;;;;21.89;100.00;94523.28;4964433;28;20287;-85
2022/06/23 09:00:40;;;;;;;13.07;6.10;;;;;;;;;;4970354;28;20290;-82
2022/06/23 09:03:31;;;;;;;13.30;6.30;;;;;;;22.08;100.00;94527.72;4966562;28;20284;-83
2022/06/23 09:06:15;;;;;;;11.55;7.03;;;;;;;22.17;100.00;94515.34;4964315;28;20235;-83
2022/06/23 09:08:55;;;;;;;15.52;6.97;;;;;;;22.26;100.00;94518.91;4970411;28;20211;-83
2022/06/23 09:11:46;;;;;;;15.40;7.63;;;;;;;22.37;100.00;94522.91;4967989;28;20263;-83
2022/06/23 09:14:48;;;;;;;11.43;6.90;;;;;;;22.52;100.00;94512.81;4970787;28;20204;-82
2022/06/23 09:17:42;;;;;;;12.38;7.75;;;;;;;22.65;100.00;94513.94;4970433;28;20196;-83
2022/06/23 09:20:38;;;;;;;14.75;7.13;;;;;;;22.73;99.46;94512.44;4969021;28;20215;-83
2022/06/23 09:23:39;;;;;;;12.15;7.97;;;;;;;22.79;98.13;94511.25;4962763;28;20259;-83
2022/06/23 09:26:28;;;;;;;11.25;7.47;;;;;;;22.94;98.21;94511.69;4970713;28;20221;-83
2022/06/23 09:29:09;;;;;;;14.48;7.50;;;;;;;23.04;99.66;94505.41;4970908;28;20208;-82
2022/06/23 09:31:54;;;;;;;12.15;7.88;;;;;;;23.11;100.00;94493.31;4970051;28;20227;-83
2022/06/23 09:34:44;;;;;;;17.25;7.43;;;;;;;23.27;100.00;94496.38;4964675;28;20212;-84
2022/06/23 09:37:40;;;;;;;16.50;8.27;;;;;;;23.25;98.80;94492.47;4969699;28;20299;-84
2022/06/23 09:40:38;;;;;;;15.40;7.80;;;;;;;23.25;97.48;94487.16;4964989;28;20227;-83
2022/06/23 09:43:40;;;;;;;13.32;8.32;;;;;;;23.43;98.99;94486.25;4970667;28;20224;-83
2022/06/23 09:46:41;;;;;;;18.70;7.85;;;;;;;23.64;97.75;94474.81;4964286;28;20703;-83
2022/06/23 09:49:29;;;;;;;14.23;7.85;;;;;;;23.83;95.10;94476.47;4961707;28;20239;-83
2022/06/23 09:52:31;;;;;;;15.27;7.05;;;;;;;23.99;94.59;94483.75;4957901;28;20216;-82
2022/06/23 09:55:28;;;;;;;16.02;7.55;;;;;;;24.04;94.38;94486.25;4965752;28;20267;-83
2022/06/23 09:58:32;;;;;;;15.18;7.35;;;;;;;24.09;96.38;94488.00;4963821;28;20209;-82
2022/06/23 10:01:18;;;;;;;14.07;7.70;;;;;;;24.19;94.87;94487.75;4960956;28;20204;-82
2022/06/23 10:04:05;;;;;;;15.50;7.57;;;;;;;24.25;94.57;94489.19;4961271;28;20590;-83
2022/06/23 10:06:55;;;;;;;12.57;7.70;;;;;;;24.37;91.61;94483.28;4974306;28;20220;-85
2022/06/23 10:09:50;;;;;;;17.05;8.35;;;;;;;24.69;92.37;94483.69;4973389;28;20196;-83
2022/06/23 10:12:50;;;;;;;16.85;8.02;;;;;;;24.82;92.15;94485.47;4967568;28;20201;-82
2022/06/23 10:15:49;;;;;;;14.43;8.18;;;;;;;24.97;92.08;94488.75;4967193;28;20201;-83
2022/06/23 10:18:51;;;;;;;17.25;8.40;;;;;;;24.93;91.74;94477.19;4973277;28;20434;-83
2022/06/23 10:21:33;;;;;;;17.27;8.32;;;;;;;24.76;91.43;94473.38;4966792;28;20261;-84
2022/06/23 10:24:34;;;;;;;18.92;8.40;;;;;;;24.72;91.70;94456.50;4973312;28;20591;-83
2022/06/23 10:27:36;;;;;;;14.38;7.68;;;;;;;25.00;91.84;94461.53;4962111;28;20315;-82
2022/06/23 10:30:21;;;;;;;16.55;7.93;;;;;;;25.16;90.31;94460.78;4966920;28;20686;-83
2022/06/23 10:33:34;;;;;;;15.55;8.18;;;;;;;25.35;88.85;94445.25;4960912;28;20209;-83
2022/06/23 10:36:35;;;;;;;17.50;7.30;;;;;;;25.67;89.34;94454.63;4962003;28;20215;-83
2022/06/23 10:39:22;;;;;;;17.30;8.10;;;;;;;25.84;86.15;94453.78;4966599;28;20208;-82
2022/06/23 10:42:15;;;;;;;15.40;7.60;;;;;;;26.16;87.62;94447.13;4968384;28;20204;-83
2022/06/23 10:45:25;;;;;;;15.77;7.70;;;;;;;26.42;88.38;94448.56;4973177;28;20200;-83
2022/06/23 10:48:33;;;;;;;17.52;7.85;;;;;;;26.45;83.92;94439.91;4960067;28;20315;-83
2022/06/23 10:51:22;;;;;;;10.25;6.82;;;;;;;26.48;85.11;94438.50;4967214;28;20200;-83
2022/06/23 10:54:12;;;;;;;12.98;7.28;;;;;;;26.51;85.50;94445.84;4966767;28;20204;-84
2022/06/23 10:57:11;;;;;;;14.52;7.25;;;;;;;26.79;84.24;94444.28;4969304;28;20244;-83
2022/06/23 11:00:06;;;;;;;13.63;7.25;;;;;;;27.16;83.09;94442.56;4972232;28;20210;-84
2022/06/23 11:03:13;;;;;;;19.15;7.20;;;;;;;27.49;83.28;94443.41;4971565;28;20380;-88
2022/06/23 11:06:17;;;;;;;13.55;7.03;;;;;;;27.61;82.79;94440.00;4972450;28;20200;-83
2022/06/23 11:09:05;;;;;;;12.80;7.25;;;;;;;27.75;81.95;94439.69;4968271;28;20208;-83
2022/06/23 11:11:58;;;;;;;12.38;7.30;;;;;;;28.00;80.35;94442.09;4972198;28;20208;-83
2022/06/23 11:14:54;;;;;;;14.68;7.97;;;;;;;28.28;78.28;94436.91;4971937;28;20694;-82
2022/06/23 11:17:38;;;;;;;14.77;7.78;;;;;;;28.36;78.35;94438.69;4972976;28;20196;-82
2022/06/23 11:20:22;;;;;;;11.85;7.20;;;;;;;28.44;78.67;94450.38;4973045;28;20707;-82
2022/06/23 11:23:04;;;;;;;15.27;7.50;;;;;;;28.46;77.38;94440.91;4966225;28;20205;-84
2022/06/23 11:25:54;;;;;;;12.88;7.07;;;;;;;28.67;77.47;94430.09;4971302;28;20201;-83
2022/06/23 11:28:40;;;;;;;15.75;6.65;;;;;;;28.94;76.60;94444.66;4973892;28;20257;-84
2022/06/23 11:31:23;;;;;;;15.18;7.70;;;;;;;28.85;75.93;94452.81;4970901;28;20209;-83
2022/06/23 11:34:14;;;;;;;13.30;7.10;;;;;;;29.23;73.91;94463.13;4966188;28;20837;-83
2022/06/23 11:37:03;;;;;;;16.88;6.68;;;;;;;29.52;74.39;94473.53;4966757;28;20201;-84
2022/06/23 11:39:56;;;;;;;13.73;7.05;;;;;;;29.63;73.96;94479.94;4966578;28;20211;-84
2022/06/23 11:42:56;;;;;;;12.65;5.72;;;;;;;29.54;75.01;94473.16;4967343;28;20201;-85
2022/06/23 11:45:46;;;;;;;15.35;6.05;;;;;;;29.28;75.53;94470.94;4972337;28;20209;-83
2022/06/23 11:48:36;;;;;;;12.63;5.63;;;;;;;29.27;73.90;94480.84;4972687;28;20232;-84
2022/06/23 11:51:22;;;;;;;11.50;6.13;;;;;;;29.12;76.50;94470.81;4968259;28;20673;-83
2022/06/23 11:54:09;;;;;;;8.10;5.20;;;;;;;29.19;72.54;94472.94;4957887;28;20244;-84
2022/06/23 11:57:01;;;;;;;9.68;5.43;;;;;;;29.16;72.01;94471.72;4971702;28;20682;-83
2022/06/23 11:59:42;;;;;;;12.88;5.40;;;;;;;29.18;74.32;94466.78;4972489;28;20205;-81
2022/06/23 12:02:16;;;;;;;10.90;4.95;;;;;;;29.38;74.75;94465.06;4966182;28;20267;-81
2022/06/23 12:05:19;;;;;;;14.52;6.55;;;;;;;29.50;72.44;94456.22;4965047;28;20217;-82
2022/06/23 12:08:20;;;;;;;12.88;6.00;;;;;;;29.07;71.63;94459.56;4959014;28;20208;-82
2022/06/23 12:10:53;;;;;;;15.70;5.60;;;;;;;28.99;72.83;94452.44;4969649;28;20439;-81
2022/06/23 12:13:27;;;;;;;17.65;6.57;;;;;;;29.11;71.43;94461.25;4969318;28;20211;-84
2022/06/23 12:16:01;;;;;;;14.43;5.53;;;;;;;29.10;71.37;94440.94;4972000;28;20259;-82
2022/06/23 12:18:39;;;;;;;11.50;5.45;;;;;;;28.96;72.59;94423.69;4959184;28;20204;-81
2022/06/23 12:21:25;;;;;;;17.25;5.50;;;;;;;29.04;71.23;94441.50;4972672;28;20200;-82
2022/06/23 12:24:02;;;;;;;12.85;5.63;;;;;;;28.99;71.33;94450.56;4956061;28;20216;-83
2022/06/23 12:26:39;;;;;;;17.42;5.82;;;;;;;29.10;70.91;94432.91;4965708;28;20365;-83
2022/06/23 12:29:19;;;;;;;14.55;6.32;;;;;;;29.02;71.26;94439.19;4966272;28;20673;-82
2022/06/23 12:31:57;;;;;;;14.10;6.20;;;;;;;28.38;70.97;94435.66;4966759;28;20212;-82
2022/06/23 12:34:42;;;;;;;13.40;6.40;;;;;;;27.96;72.43;94435.84;4963470;28;20232;-83
2022/06/23 12:37:24;;;;;;;10.82;6.43;;;;;;;27.87;75.26;94432.50;4967250;28;20305;-82
2022/06/23 12:40:04;;;;;;;18.38;6.80;;;;;;;27.88;74.00;94427.94;4959846;28;20209;-82
2022/06/23 12:42:45;;;;;;;14.70;6.45;;;;;;;27.79;74.41;94438.72;4971564;28;20201;-83
2022/06/23 12:45:47;;;;;;;18.63;6.50;;;;;;;27.50;74.82;94417.50;4966895;28;20240;-80
2022/06/23 12:48:42;;;;;;;18.58;7.03;;;;;;;27.21;77.57;94430.94;4959847;28;20227;-82
2022/06/23 12:51:29;;;;;;;19.80;8.02;;;;;;;27.11;77.48;94420.66;4965942;28;20212;-80